sensor_id;sensor_type;location;lat;lon;timestamp;P1;durP1;ratioP1;P2;durP2;ratioP2
77038;SDS011;65970;50.476;4.840;2023-11-22T00:02:22;10.95;;;7.03;;
77038;SDS011;65970;50.476;4.840;2023-11-22T00:07:23;11.85;;;7.63;;
77038;SDS011;65970;50.476;4.840;2023-11-22T00:12:23;11.10;;;7.50;;
77038;SDS011;65970;50.476;4.840;2023-11-22T00:17:24;11.60;;;7.60;;
77038;SDS011;65970;50.476;4.840;2023-11-22T00:22:25;10.30;;;7.28;;
77038;SDS011;65970;50.476;4.840;2023-11-22T00:27:25;15.27;;;7.63;;
77038;SDS011;65970;50.476;4.840;2023-11-22T00:32:26;11.15;;;7.78;;
77038;SDS011;65970;50.476;4.840;2023-11-22T00:37:26;13.50;;;8.30;;
77038;SDS011;65970;50.476;4.840;2023-11-22T00:42:27;15.48;;;8.90;;
77038;SDS011;65970;50.476;4.840;2023-11-22T00:47:27;12.90;;;8.52;;
77038;SDS011;65970;50.476;4.840;2023-11-22T00:52:28;15.70;;;9.15;;
77038;SDS011;65970;50.476;4.840;2023-11-22T00:57:28;14.63;;;8.13;;
77038;SDS011;65970;50.476;4.840;2023-11-22T01:02:29;15.75;;;8.85;;
77038;SDS011;65970;50.476;4.840;2023-11-22T01:07:30;15.32;;;9.57;;
77038;SDS011;65970;50.476;4.840;2023-11-22T01:12:30;13.80;;;8.98;;
77038;SDS011;65970;50.476;4.840;2023-11-22T01:17:31;15.35;;;9.32;;
77038;SDS011;65970;50.476;4.840;2023-11-22T01:22:32;16.33;;;9.57;;
77038;SDS011;65970;50.476;4.840;2023-11-22T01:27:32;14.85;;;9.07;;
77038;SDS011;65970;50.476;4.840;2023-11-22T01:32:33;14.40;;;8.98;;
77038;SDS011;65970;50.476;4.840;2023-11-22T01:37:34;14.20;;;8.82;;
77038;SDS011;65970;50.476;4.840;2023-11-22T01:42:34;15.45;;;8.95;;
77038;SDS011;65970;50.476;4.840;2023-11-22T01:47:35;14.65;;;9.05;;
77038;SDS011;65970;50.476;4.840;2023-11-22T01:52:37;11.43;;;7.30;;
77038;SDS011;65970;50.476;4.840;2023-11-22T01:57:38;16.73;;;8.80;;
77038;SDS011;65970;50.476;4.840;2023-11-22T02:02:39;15.25;;;8.73;;
77038;SDS011;65970;50.476;4.840;2023-11-22T02:07:40;15.30;;;8.80;;
77038;SDS011;65970;50.476;4.840;2023-11-22T02:12:41;16.67;;;8.80;;
77038;SDS011;65970;50.476;4.840;2023-11-22T02:17:41;17.13;;;9.68;;
77038;SDS011;65970;50.476;4.840;2023-11-22T02:22:45;15.50;;;9.07;;
77038;SDS011;65970;50.476;4.840;2023-11-22T02:27:47;13.95;;;8.13;;
77038;SDS011;65970;50.476;4.840;2023-11-22T02:32:47;13.57;;;9.10;;
77038;SDS011;65970;50.476;4.840;2023-11-22T02:37:48;14.85;;;8.85;;
77038;SDS011;65970;50.476;4.840;2023-11-22T02:42:49;14.93;;;8.07;;
77038;SDS011;65970;50.476;4.840;2023-11-22T02:47:50;13.43;;;8.60;;
77038;SDS011;65970;50.476;4.840;2023-11-22T02:52:51;14.60;;;9.00;;
77038;SDS011;65970;50.476;4.840;2023-11-22T02:57:51;13.55;;;8.63;;
77038;SDS011;65970;50.476;4.840;2023-11-22T03:02:52;14.88;;;9.23;;
77038;SDS011;65970;50.476;4.840;2023-11-22T03:07:52;14.18;;;9.75;;
77038;SDS011;65970;50.476;4.840;2023-11-22T03:12:53;17.77;;;8.95;;
77038;SDS011;65970;50.476;4.840;2023-11-22T03:17:53;13.43;;;8.23;;
77038;SDS011;65970;50.476;4.840;2023-11-22T03:22:54;14.20;;;8.95;;
77038;SDS011;65970;50.476;4.840;2023-11-22T03:27:54;11.43;;;8.20;;
77038;SDS011;65970;50.476;4.840;2023-11-22T03:32:55;12.95;;;8.35;;
77038;SDS011;65970;50.476;4.840;2023-11-22T03:37:55;14.10;;;8.27;;
77038;SDS011;65970;50.476;4.840;2023-11-22T03:42:56;11.30;;;7.53;;
77038;SDS011;65970;50.476;4.840;2023-11-22T03:47:57;14.88;;;8.52;;
77038;SDS011;65970;50.476;4.840;2023-11-22T03:52:57;16.50;;;8.63;;
77038;SDS011;65970;50.476;4.840;2023-11-22T03:57:58;12.18;;;7.53;;
77038;SDS011;65970;50.476;4.840;2023-11-22T04:02:58;11.98;;;7.20;;
77038;SDS011;65970;50.476;4.840;2023-11-22T04:07:59;12.65;;;7.53;;
77038;SDS011;65970;50.476;4.840;2023-11-22T04:12:59;11.57;;;7.32;;
77038;SDS011;65970;50.476;4.840;2023-11-22T04:18:00;12.77;;;8.30;;
77038;SDS011;65970;50.476;4.840;2023-11-22T04:23:00;15.55;;;8.05;;
77038;SDS011;65970;50.476;4.840;2023-11-22T04:28:01;12.93;;;8.05;;
77038;SDS011;65970;50.476;4.840;2023-11-22T04:33:02;14.63;;;8.80;;
77038;SDS011;65970;50.476;4.840;2023-11-22T04:38:02;16.73;;;9.13;;
77038;SDS011;65970;50.476;4.840;2023-11-22T04:43:03;13.57;;;7.63;;
77038;SDS011;65970;50.476;4.840;2023-11-22T04:48:03;14.52;;;8.23;;
77038;SDS011;65970;50.476;4.840;2023-11-22T04:53:04;14.95;;;7.35;;
77038;SDS011;65970;50.476;4.840;2023-11-22T04:58:06;13.68;;;7.70;;
77038;SDS011;65970;50.476;4.840;2023-11-22T05:03:06;14.30;;;7.80;;
77038;SDS011;65970;50.476;4.840;2023-11-22T05:08:07;14.98;;;9.00;;
77038;SDS011;65970;50.476;4.840;2023-11-22T05:13:07;13.30;;;8.30;;
77038;SDS011;65970;50.476;4.840;2023-11-22T05:18:08;13.50;;;7.63;;
77038;SDS011;65970;50.476;4.840;2023-11-22T05:23:08;12.45;;;7.55;;
77038;SDS011;65970;50.476;4.840;2023-11-22T05:28:09;15.77;;;8.30;;
77038;SDS011;65970;50.476;4.840;2023-11-22T05:33:09;12.13;;;7.00;;
77038;SDS011;65970;50.476;4.840;2023-11-22T05:38:10;14.45;;;7.15;;
77038;SDS011;65970;50.476;4.840;2023-11-22T05:43:11;10.57;;;6.97;;
77038;SDS011;65970;50.476;4.840;2023-11-22T05:48:11;14.07;;;7.47;;
77038;SDS011;65970;50.476;4.840;2023-11-22T05:53:12;10.80;;;6.07;;
77038;SDS011;65970;50.476;4.840;2023-11-22T05:58:13;15.13;;;7.85;;
77038;SDS011;65970;50.476;4.840;2023-11-22T06:03:14;11.85;;;7.78;;
77038;SDS011;65970;50.476;4.840;2023-11-22T06:08:14;8.23;;;5.53;;
77038;SDS011;65970;50.476;4.840;2023-11-22T06:13:15;13.27;;;7.85;;
77038;SDS011;65970;50.476;4.840;2023-11-22T06:18:15;11.57;;;6.93;;
77038;SDS011;65970;50.476;4.840;2023-11-22T06:23:16;8.68;;;4.88;;
77038;SDS011;65970;50.476;4.840;2023-11-22T06:28:16;11.40;;;6.65;;
77038;SDS011;65970;50.476;4.840;2023-11-22T06:33:17;11.93;;;6.43;;
77038;SDS011;65970;50.476;4.840;2023-11-22T06:38:18;10.52;;;6.05;;
77038;SDS011;65970;50.476;4.840;2023-11-22T06:43:18;10.98;;;6.72;;
77038;SDS011;65970;50.476;4.840;2023-11-22T06:48:19;9.18;;;5.28;;
77038;SDS011;65970;50.476;4.840;2023-11-22T06:53:19;8.38;;;5.30;;
77038;SDS011;65970;50.476;4.840;2023-11-22T06:58:20;10.85;;;5.10;;
77038;SDS011;65970;50.476;4.840;2023-11-22T07:03:20;8.38;;;5.00;;
77038;SDS011;65970;50.476;4.840;2023-11-22T07:08:21;8.40;;;6.22;;
77038;SDS011;65970;50.476;4.840;2023-11-22T07:13:22;8.80;;;5.63;;
77038;SDS011;65970;50.476;4.840;2023-11-22T07:18:23;13.00;;;6.40;;
77038;SDS011;65970;50.476;4.840;2023-11-22T07:23:23;11.07;;;6.07;;
77038;SDS011;65970;50.476;4.840;2023-11-22T07:28:24;10.95;;;6.35;;
77038;SDS011;65970;50.476;4.840;2023-11-22T07:33:24;11.30;;;6.65;;
77038;SDS011;65970;50.476;4.840;2023-11-22T07:38:25;15.68;;;8.70;;
77038;SDS011;65970;50.476;4.840;2023-11-22T07:43:25;10.13;;;6.75;;
77038;SDS011;65970;50.476;4.840;2023-11-22T07:48:26;10.70;;;6.68;;
77038;SDS011;65970;50.476;4.840;2023-11-22T07:53:26;10.40;;;6.88;;
77038;SDS011;65970;50.476;4.840;2023-11-22T07:58:27;11.05;;;7.30;;
77038;SDS011;65970;50.476;4.840;2023-11-22T08:03:27;15.57;;;8.77;;
77038;SDS011;65970;50.476;4.840;2023-11-22T08:08:28;12.10;;;7.47;;
77038;SDS011;65970;50.476;4.840;2023-11-22T08:13:28;20.08;;;7.68;;
77038;SDS011;65970;50.476;4.840;2023-11-22T08:18:29;12.27;;;7.47;;
77038;SDS011;65970;50.476;4.840;2023-11-22T08:23:29;12.63;;;7.20;;
77038;SDS011;65970;50.476;4.840;2023-11-22T08:28:30;11.63;;;6.95;;
77038;SDS011;65970;50.476;4.840;2023-11-22T08:33:31;13.48;;;6.90;;
77038;SDS011;65970;50.476;4.840;2023-11-22T08:38:31;15.18;;;6.60;;
77038;SDS011;65970;50.476;4.840;2023-11-22T08:43:32;12.23;;;7.07;;
77038;SDS011;65970;50.476;4.840;2023-11-22T08:48:33;13.15;;;7.50;;
77038;SDS011;65970;50.476;4.840;2023-11-22T08:53:34;14.55;;;7.72;;
77038;SDS011;65970;50.476;4.840;2023-11-22T08:58:34;11.40;;;6.70;;
77038;SDS011;65970;50.476;4.840;2023-11-22T09:03:35;21.23;;;10.18;;
77038;SDS011;65970;50.476;4.840;2023-11-22T09:08:36;11.43;;;7.20;;
77038;SDS011;65970;50.476;4.840;2023-11-22T09:13:38;9.40;;;5.75;;
77038;SDS011;65970;50.476;4.840;2023-11-22T09:18:39;14.87;;;7.43;;
77038;SDS011;65970;50.476;4.840;2023-11-22T09:23:39;10.38;;;6.28;;
77038;SDS011;65970;50.476;4.840;2023-11-22T09:28:42;9.65;;;5.25;;
77038;SDS011;65970;50.476;4.840;2023-11-22T09:33:42;7.65;;;4.88;;
77038;SDS011;65970;50.476;4.840;2023-11-22T09:38:43;9.75;;;4.72;;
77038;SDS011;65970;50.476;4.840;2023-11-22T09:43:44;8.05;;;5.05;;
77038;SDS011;65970;50.476;4.840;2023-11-22T09:48:45;10.45;;;5.15;;
77038;SDS011;65970;50.476;4.840;2023-11-22T09:58:54;9.43;;;4.90;;
77038;SDS011;65970;50.476;4.840;2023-11-22T10:03:57;12.02;;;7.00;;
77038;SDS011;65970;50.476;4.840;2023-11-22T10:08:59;8.35;;;5.03;;
77038;SDS011;65970;50.476;4.840;2023-11-22T10:14:01;10.18;;;6.15;;
77038;SDS011;65970;50.476;4.840;2023-11-22T10:19:02;9.88;;;6.45;;
77038;SDS011;65970;50.476;4.840;2023-11-22T10:24:06;10.73;;;5.82;;
77038;SDS011;65970;50.476;4.840;2023-11-22T10:29:07;8.68;;;5.30;;
77038;SDS011;65970;50.476;4.840;2023-11-22T10:34:07;12.30;;;5.40;;
77038;SDS011;65970;50.476;4.840;2023-11-22T10:39:09;10.23;;;5.75;;
77038;SDS011;65970;50.476;4.840;2023-11-22T10:44:09;25.73;;;9.85;;
77038;SDS011;65970;50.476;4.840;2023-11-22T10:49:10;18.23;;;8.23;;
77038;SDS011;65970;50.476;4.840;2023-11-22T10:54:10;10.73;;;5.60;;
77038;SDS011;65970;50.476;4.840;2023-11-22T10:59:15;10.32;;;6.15;;
77038;SDS011;65970;50.476;4.840;2023-11-22T11:04:19;7.47;;;4.88;;
77038;SDS011;65970;50.476;4.840;2023-11-22T11:09:29;6.82;;;4.65;;
77038;SDS011;65970;50.476;4.840;2023-11-22T11:14:30;7.63;;;4.90;;
77038;SDS011;65970;50.476;4.840;2023-11-22T11:19:31;6.57;;;4.70;;
77038;SDS011;65970;50.476;4.840;2023-11-22T11:24:37;9.43;;;4.97;;
77038;SDS011;65970;50.476;4.840;2023-11-22T11:29:41;9.90;;;5.50;;
77038;SDS011;65970;50.476;4.840;2023-11-22T11:34:48;9.30;;;5.32;;
77038;SDS011;65970;50.476;4.840;2023-11-22T11:39:49;7.30;;;4.57;;
77038;SDS011;65970;50.476;4.840;2023-11-22T11:49:59;9.38;;;4.95;;
77038;SDS011;65970;50.476;4.840;2023-11-22T11:55:00;7.75;;;4.68;;
77038;SDS011;65970;50.476;4.840;2023-11-22T12:00:00;9.05;;;5.15;;
77038;SDS011;65970;50.476;4.840;2023-11-22T12:05:01;8.30;;;4.55;;
77038;SDS011;65970;50.476;4.840;2023-11-22T12:10:02;9.05;;;5.43;;
77038;SDS011;65970;50.476;4.840;2023-11-22T12:15:04;10.90;;;5.65;;
77038;SDS011;65970;50.476;4.840;2023-11-22T12:20:11;7.70;;;4.82;;
77038;SDS011;65970;50.476;4.840;2023-11-22T12:25:13;5.72;;;3.63;;
77038;SDS011;65970;50.476;4.840;2023-11-22T12:35:33;12.07;;;6.35;;
77038;SDS011;65970;50.476;4.840;2023-11-22T12:40:35;9.57;;;5.50;;
77038;SDS011;65970;50.476;4.840;2023-11-22T12:45:36;7.13;;;4.03;;
77038;SDS011;65970;50.476;4.840;2023-11-22T12:50:37;9.40;;;5.60;;
77038;SDS011;65970;50.476;4.840;2023-11-22T12:55:45;8.02;;;4.32;;
77038;SDS011;65970;50.476;4.840;2023-11-22T13:00:47;8.95;;;5.25;;
77038;SDS011;65970;50.476;4.840;2023-11-22T13:05:49;8.27;;;4.70;;
77038;SDS011;65970;50.476;4.840;2023-11-22T13:10:50;8.95;;;5.28;;
77038;SDS011;65970;50.476;4.840;2023-11-22T13:15:51;7.15;;;4.20;;
77038;SDS011;65970;50.476;4.840;2023-11-22T13:20:51;6.10;;;3.67;;
77038;SDS011;65970;50.476;4.840;2023-11-22T13:25:52;5.93;;;3.70;;
77038;SDS011;65970;50.476;4.840;2023-11-22T13:30:53;7.70;;;4.32;;
77038;SDS011;65970;50.476;4.840;2023-11-22T13:35:53;7.82;;;4.05;;
77038;SDS011;65970;50.476;4.840;2023-11-22T13:45:57;5.32;;;3.33;;
77038;SDS011;65970;50.476;4.840;2023-11-22T13:50:58;8.40;;;4.03;;
77038;SDS011;65970;50.476;4.840;2023-11-22T13:55:58;6.07;;;3.97;;
77038;SDS011;65970;50.476;4.840;2023-11-22T14:00:59;7.57;;;4.38;;
77038;SDS011;65970;50.476;4.840;2023-11-22T14:05:59;5.50;;;3.95;;
77038;SDS011;65970;50.476;4.840;2023-11-22T14:11:00;5.85;;;4.00;;
77038;SDS011;65970;50.476;4.840;2023-11-22T14:16:00;8.23;;;3.78;;
77038;SDS011;65970;50.476;4.840;2023-11-22T14:21:01;6.38;;;4.15;;
77038;SDS011;65970;50.476;4.840;2023-11-22T14:26:04;9.13;;;3.70;;
77038;SDS011;65970;50.476;4.840;2023-11-22T14:31:04;6.93;;;4.55;;
77038;SDS011;65970;50.476;4.840;2023-11-22T14:36:05;6.43;;;4.03;;
77038;SDS011;65970;50.476;4.840;2023-11-22T14:41:06;7.82;;;4.93;;
77038;SDS011;65970;50.476;4.840;2023-11-22T14:46:06;5.43;;;3.67;;
77038;SDS011;65970;50.476;4.840;2023-11-22T14:51:07;8.45;;;4.35;;
77038;SDS011;65970;50.476;4.840;2023-11-22T14:56:09;6.25;;;3.55;;
77038;SDS011;65970;50.476;4.840;2023-11-22T15:01:10;5.05;;;3.72;;
77038;SDS011;65970;50.476;4.840;2023-11-22T15:06:10;7.03;;;4.18;;
77038;SDS011;65970;50.476;4.840;2023-11-22T15:11:11;5.78;;;3.58;;
77038;SDS011;65970;50.476;4.840;2023-11-22T15:16:11;7.03;;;4.40;;
77038;SDS011;65970;50.476;4.840;2023-11-22T15:21:12;6.55;;;3.85;;
77038;SDS011;65970;50.476;4.840;2023-11-22T15:26:13;10.68;;;5.47;;
77038;SDS011;65970;50.476;4.840;2023-11-22T15:31:16;7.00;;;4.32;;
77038;SDS011;65970;50.476;4.840;2023-11-22T15:36:18;7.60;;;4.28;;
77038;SDS011;65970;50.476;4.840;2023-11-22T15:41:18;6.93;;;4.10;;
77038;SDS011;65970;50.476;4.840;2023-11-22T15:46:19;5.57;;;3.67;;
77038;SDS011;65970;50.476;4.840;2023-11-22T15:51:19;5.88;;;3.95;;
77038;SDS011;65970;50.476;4.840;2023-11-22T15:56:20;7.50;;;4.35;;
77038;SDS011;65970;50.476;4.840;2023-11-22T16:01:21;7.68;;;4.85;;
77038;SDS011;65970;50.476;4.840;2023-11-22T16:06:21;8.77;;;4.53;;
77038;SDS011;65970;50.476;4.840;2023-11-22T16:11:22;5.95;;;4.25;;
77038;SDS011;65970;50.476;4.840;2023-11-22T16:16:22;7.47;;;5.03;;
77038;SDS011;65970;50.476;4.840;2023-11-22T16:21:23;7.90;;;4.97;;
77038;SDS011;65970;50.476;4.840;2023-11-22T16:26:24;9.25;;;5.30;;
77038;SDS011;65970;50.476;4.840;2023-11-22T16:31:24;6.43;;;4.95;;
77038;SDS011;65970;50.476;4.840;2023-11-22T16:36:25;5.28;;;4.32;;
77038;SDS011;65970;50.476;4.840;2023-11-22T16:41:25;6.88;;;4.65;;
77038;SDS011;65970;50.476;4.840;2023-11-22T16:46:26;11.07;;;5.28;;
77038;SDS011;65970;50.476;4.840;2023-11-22T16:51:27;8.93;;;5.32;;
77038;SDS011;65970;50.476;4.840;2023-11-22T16:56:28;8.45;;;4.72;;
77038;SDS011;65970;50.476;4.840;2023-11-22T17:01:28;8.93;;;5.95;;
77038;SDS011;65970;50.476;4.840;2023-11-22T17:06:29;8.60;;;4.93;;
77038;SDS011;65970;50.476;4.840;2023-11-22T17:11:29;5.88;;;3.72;;
77038;SDS011;65970;50.476;4.840;2023-11-22T17:16:30;8.15;;;4.07;;
77038;SDS011;65970;50.476;4.840;2023-11-22T17:21:30;5.88;;;4.38;;
77038;SDS011;65970;50.476;4.840;2023-11-22T17:26:31;7.05;;;4.35;;
77038;SDS011;65970;50.476;4.840;2023-11-22T17:31:31;9.00;;;5.07;;
77038;SDS011;65970;50.476;4.840;2023-11-22T17:36:32;9.50;;;4.85;;
77038;SDS011;65970;50.476;4.840;2023-11-22T17:41:33;11.77;;;6.65;;
77038;SDS011;65970;50.476;4.840;2023-11-22T17:46:33;9.90;;;6.57;;
77038;SDS011;65970;50.476;4.840;2023-11-22T17:51:38;13.60;;;6.78;;
77038;SDS011;65970;50.476;4.840;2023-11-22T17:56:39;11.35;;;6.72;;
77038;SDS011;65970;50.476;4.840;2023-11-22T18:01:40;12.13;;;6.25;;
77038;SDS011;65970;50.476;4.840;2023-11-22T18:06:40;10.98;;;6.72;;
77038;SDS011;65970;50.476;4.840;2023-11-22T18:11:41;8.27;;;5.57;;
77038;SDS011;65970;50.476;4.840;2023-11-22T18:16:41;9.98;;;6.65;;
77038;SDS011;65970;50.476;4.840;2023-11-22T18:21:42;8.95;;;5.93;;
77038;SDS011;65970;50.476;4.840;2023-11-22T18:26:42;11.13;;;5.50;;
77038;SDS011;65970;50.476;4.840;2023-11-22T18:31:43;11.25;;;6.13;;
77038;SDS011;65970;50.476;4.840;2023-11-22T18:36:44;8.07;;;5.25;;
77038;SDS011;65970;50.476;4.840;2023-11-22T18:41:44;9.75;;;6.07;;
77038;SDS011;65970;50.476;4.840;2023-11-22T18:46:45;8.07;;;5.10;;
77038;SDS011;65970;50.476;4.840;2023-11-22T18:51:46;10.75;;;5.60;;
77038;SDS011;65970;50.476;4.840;2023-11-22T18:56:47;14.85;;;6.72;;
77038;SDS011;65970;50.476;4.840;2023-11-22T19:01:48;10.13;;;5.70;;
77038;SDS011;65970;50.476;4.840;2023-11-22T19:06:49;11.18;;;6.57;;
77038;SDS011;65970;50.476;4.840;2023-11-22T19:11:49;11.93;;;6.70;;
77038;SDS011;65970;50.476;4.840;2023-11-22T19:16:50;12.23;;;6.88;;
77038;SDS011;65970;50.476;4.840;2023-11-22T19:21:50;10.73;;;5.43;;
77038;SDS011;65970;50.476;4.840;2023-11-22T19:26:51;10.48;;;5.80;;
77038;SDS011;65970;50.476;4.840;2023-11-22T19:31:51;8.07;;;5.55;;
77038;SDS011;65970;50.476;4.840;2023-11-22T19:36:52;11.38;;;5.93;;
77038;SDS011;65970;50.476;4.840;2023-11-22T19:41:52;10.65;;;6.70;;
77038;SDS011;65970;50.476;4.840;2023-11-22T19:46:53;11.55;;;6.60;;
77038;SDS011;65970;50.476;4.840;2023-11-22T19:51:54;14.68;;;6.88;;
77038;SDS011;65970;50.476;4.840;2023-11-22T19:56:54;14.60;;;7.43;;
77038;SDS011;65970;50.476;4.840;2023-11-22T20:01:55;7.97;;;4.95;;
77038;SDS011;65970;50.476;4.840;2023-11-22T20:06:55;12.75;;;6.80;;
77038;SDS011;65970;50.476;4.840;2023-11-22T20:11:56;9.95;;;5.97;;
77038;SDS011;65970;50.476;4.840;2023-11-22T20:16:56;9.38;;;5.30;;
77038;SDS011;65970;50.476;4.840;2023-11-22T20:21:57;15.02;;;6.50;;
77038;SDS011;65970;50.476;4.840;2023-11-22T20:26:57;9.30;;;5.95;;
77038;SDS011;65970;50.476;4.840;2023-11-22T20:31:58;10.95;;;5.38;;
77038;SDS011;65970;50.476;4.840;2023-11-22T20:36:58;8.63;;;5.47;;
77038;SDS011;65970;50.476;4.840;2023-11-22T20:41:59;10.30;;;5.90;;
77038;SDS011;65970;50.476;4.840;2023-11-22T20:46:59;9.25;;;4.93;;
77038;SDS011;65970;50.476;4.840;2023-11-22T20:52:00;6.63;;;4.25;;
77038;SDS011;65970;50.476;4.840;2023-11-22T20:57:01;6.90;;;4.13;;
77038;SDS011;65970;50.476;4.840;2023-11-22T21:02:01;7.03;;;4.75;;
77038;SDS011;65970;50.476;4.840;2023-11-22T21:07:02;6.95;;;3.78;;
77038;SDS011;65970;50.476;4.840;2023-11-22T21:12:03;6.35;;;3.90;;
77038;SDS011;65970;50.476;4.840;2023-11-22T21:17:04;6.20;;;4.28;;
77038;SDS011;65970;50.476;4.840;2023-11-22T21:22:05;6.93;;;4.13;;
77038;SDS011;65970;50.476;4.840;2023-11-22T21:27:05;6.85;;;3.67;;
77038;SDS011;65970;50.476;4.840;2023-11-22T21:32:06;6.82;;;4.35;;
77038;SDS011;65970;50.476;4.840;2023-11-22T21:37:06;6.05;;;3.67;;
77038;SDS011;65970;50.476;4.840;2023-11-22T21:42:07;6.03;;;3.03;;
77038;SDS011;65970;50.476;4.840;2023-11-22T21:47:08;6.28;;;3.38;;
77038;SDS011;65970;50.476;4.840;2023-11-22T21:52:08;5.40;;;3.22;;
77038;SDS011;65970;50.476;4.840;2023-11-22T21:57:09;5.38;;;3.30;;
77038;SDS011;65970;50.476;4.840;2023-11-22T22:02:09;5.00;;;2.85;;
77038;SDS011;65970;50.476;4.840;2023-11-22T22:07:10;5.25;;;2.78;;
77038;SDS011;65970;50.476;4.840;2023-11-22T22:12:11;5.53;;;3.75;;
77038;SDS011;65970;50.476;4.840;2023-11-22T22:17:11;4.25;;;2.60;;
77038;SDS011;65970;50.476;4.840;2023-11-22T22:22:12;4.97;;;2.95;;
77038;SDS011;65970;50.476;4.840;2023-11-22T22:27:12;4.55;;;2.70;;
77038;SDS011;65970;50.476;4.840;2023-11-22T22:32:13;4.13;;;2.70;;
77038;SDS011;65970;50.476;4.840;2023-11-22T22:37:13;6.38;;;3.05;;
77038;SDS011;65970;50.476;4.840;2023-11-22T22:42:14;6.80;;;2.75;;
77038;SDS011;65970;50.476;4.840;2023-11-22T22:47:14;3.15;;;2.20;;
77038;SDS011;65970;50.476;4.840;2023-11-22T22:52:15;5.47;;;2.40;;
77038;SDS011;65970;50.476;4.840;2023-11-22T22:57:16;5.30;;;2.70;;
77038;SDS011;65970;50.476;4.840;2023-11-22T23:02:16;4.97;;;2.95;;
77038;SDS011;65970;50.476;4.840;2023-11-22T23:07:17;3.97;;;2.60;;
77038;SDS011;65970;50.476;4.840;2023-11-22T23:12:17;6.75;;;3.28;;
77038;SDS011;65970;50.476;4.840;2023-11-22T23:17:18;6.00;;;3.13;;
77038;SDS011;65970;50.476;4.840;2023-11-22T23:22:18;3.90;;;2.55;;
77038;SDS011;65970;50.476;4.840;2023-11-22T23:27:19;5.80;;;3.17;;
77038;SDS011;65970;50.476;4.840;2023-11-22T23:32:19;3.92;;;2.47;;
77038;SDS011;65970;50.476;4.840;2023-11-22T23:37:20;2.88;;;2.45;;
77038;SDS011;65970;50.476;4.840;2023-11-22T23:42:21;4.60;;;2.38;;
77038;SDS011;65970;50.476;4.840;2023-11-22T23:47:21;3.33;;;2.45;;
77038;SDS011;65970;50.476;4.840;2023-11-22T23:52:22;5.20;;;2.85;;
77038;SDS011;65970;50.476;4.840;2023-11-22T23:57:23;3.70;;;2.40;;
